Time;durP1;ratioP1;P1;durP2;ratioP2;P2;SDS_P1;SDS_P2;PMS_P1;PMS_P2;Temp;Humidity;BMP_temperature;BMP_pressure;BME280_temperature;BME280_humidity;BME280_pressure;Samples;Min_cycle;Max_cycle;Signal;HPM_P1;HPM_P2
2021/12/31 00:01:31;;;;;;;4.00;0.90;;;;;;;12.09;100.00;100672.97;5064519;28;20059;-52
2021/12/31 00:03:57;;;;;;;5.28;0.57;;;;;;;12.07;100.00;100673.16;5064310;28;20303;-48
2021/12/31 00:06:23;;;;;;;5.45;1.13;;;;;;;12.02;100.00;100670.25;5063899;28;20081;-53
2021/12/31 00:08:48;;;;;;;5.25;0.40;;;;;;;12.04;100.00;100668.22;5063850;28;20067;-51
2021/12/31 00:11:13;;;;;;;4.97;0.63;;;;;;;12.04;100.00;100660.25;5062736;28;20106;-51
2021/12/31 00:13:38;;;;;;;7.53;1.05;;;;;;;12.03;100.00;100655.97;5061754;28;20040;-51
2021/12/31 00:16:04;;;;;;;11.52;2.33;;;;;;;12.05;100.00;100658.41;5060721;28;20028;-55
2021/12/31 00:18:29;;;;;;;7.50;0.63;;;;;;;12.04;100.00;100656.78;5064856;28;20470;-53
2021/12/31 00:20:55;;;;;;;11.13;0.90;;;;;;;12.05;100.00;100655.75;5063860;28;20057;-54
2021/12/31 00:23:24;;;;;;;1.75;0.50;;;;;;;12.06;100.00;100660.06;5061986;28;20086;-50
2021/12/31 00:25:50;;;;;;;6.18;1.60;;;;;;;12.04;100.00;100656.78;5062787;28;20028;-47
2021/12/31 00:28:15;;;;;;;5.72;0.30;;;;;;;12.00;100.00;100651.88;5064704;28;20376;-48
2021/12/31 00:30:41;;;;;;;4.55;1.08;;;;;;;11.98;100.00;100664.53;5060199;28;20048;-52
2021/12/31 00:33:08;;;;;;;4.03;0.30;;;;;;;11.98;100.00;100674.34;5062766;28;20448;-48
2021/12/31 00:35:35;;;;;;;2.50;0.32;;;;;;;11.97;100.00;100684.13;5062469;28;20408;-48
2021/12/31 00:38:00;;;;;;;7.95;0.80;;;;;;;11.96;100.00;100679.03;5063198;28;20036;-53
2021/12/31 00:40:27;;;;;;;4.15;0.50;;;;;;;11.93;100.00;100661.63;5064278;28;20052;-49
2021/12/31 00:42:53;;;;;;;4.13;1.80;;;;;;;11.92;100.00;100665.28;5061189;28;20032;-51
2021/12/31 00:45:21;;;;;;;3.40;0.47;;;;;;;11.96;100.00;100668.41;5062823;28;20568;-50
2021/12/31 00:47:47;;;;;;;2.17;1.17;;;;;;;11.98;100.00;100664.53;5062024;28;20117;-53
2021/12/31 00:50:14;;;;;;;7.95;1.48;;;;;;;11.98;100.00;100671.69;5063417;28;20024;-50
2021/12/31 00:52:39;;;;;;;6.00;1.65;;;;;;;11.97;100.00;100673.50;5064561;28;20039;-49
2021/12/31 00:55:06;;;;;;;5.95;0.50;;;;;;;11.99;100.00;100678.63;5062527;28;20024;-54
2021/12/31 00:57:31;;;;;;;1.80;0.73;;;;;;;12.03;100.00;100681.69;5061986;28;20077;-52
2021/12/31 00:59:57;;;;;;;5.57;0.80;;;;;;;12.00;100.00;100670.47;5063300;28;20138;-48
2021/12/31 01:02:25;;;;;;;3.58;0.77;;;;;;;11.98;100.00;100683.13;5064446;28;20792;-52
2021/12/31 01:04:51;;;;;;;7.80;1.30;;;;;;;11.98;100.00;100674.34;5064438;28;20485;-51
2021/12/31 01:07:16;;;;;;;10.70;0.85;;;;;;;11.95;100.00;100670.22;5065396;28;20035;-51
2021/12/31 01:09:41;;;;;;;2.50;1.13;;;;;;;11.95;100.00;100674.72;5065207;28;20037;-55
2021/12/31 01:12:10;;;;;;;6.28;1.30;;;;;;;11.95;100.00;100682.69;5062441;28;20033;-56
2021/12/31 01:14:40;;;;;;;2.85;0.77;;;;;;;11.94;100.00;100676.53;5061807;28;20040;-56
2021/12/31 01:17:12;;;;;;;3.20;0.45;;;;;;;11.92;100.00;100667.13;5048579;28;20024;-51
2021/12/31 01:19:46;;;;;;;2.97;0.82;;;;;;;11.89;100.00;100678.16;5062768;28;20490;-54
2021/12/31 01:22:18;;;;;;;6.22;0.30;;;;;;;11.88;100.00;100680.00;5059408;28;20029;-50
2021/12/31 01:24:45;;;;;;;10.77;1.98;;;;;;;11.91;100.00;100678.78;5062874;28;20105;-49
2021/12/31 01:27:12;;;;;;;4.25;1.35;;;;;;;11.89;100.00;100671.00;5061383;28;20025;-53
2021/12/31 01:29:38;;;;;;;6.75;0.95;;;;;;;11.92;100.00;100681.22;5059532;28;20044;-49
2021/12/31 01:32:03;;;;;;;6.25;1.35;;;;;;;11.93;100.00;100682.88;5059396;28;20374;-54
2021/12/31 01:34:29;;;;;;;2.67;0.13;;;;;;;11.92;100.00;100670.59;5058766;28;20032;-50
2021/12/31 01:36:54;;;;;;;1.95;0.52;;;;;;;11.91;100.00;100682.25;5062542;28;20032;-51
2021/12/31 01:39:20;;;;;;;5.47;0.85;;;;;;;11.90;100.00;100693.06;5061394;28;20032;-48
2021/12/31 01:41:45;;;;;;;5.20;1.60;;;;;;;11.91;100.00;100681.44;5064269;28;20458;-50
2021/12/31 01:44:10;;;;;;;2.78;0.38;;;;;;;11.89;100.00;100665.69;5059738;28;20451;-48
2021/12/31 01:46:39;;;;;;;1.35;0.70;;;;;;;11.88;100.00;100668.56;5061096;28;20036;-51
2021/12/31 01:49:18;;;;;;;11.38;0.82;;;;;;;11.86;100.00;100663.41;5064014;28;20025;-48
2021/12/31 01:51:43;;;;;;;7.20;0.90;;;;;;;11.85;100.00;100667.06;5060947;28;20056;-53
2021/12/31 01:54:09;;;;;;;3.08;0.70;;;;;;;11.86;100.00;100652.78;5063497;28;20491;-48
2021/12/31 01:56:35;;;;;;;4.75;0.55;;;;;;;11.83;100.00;100645.19;5061285;28;20024;-52
2021/12/31 01:59:00;;;;;;;5.80;0.45;;;;;;;11.82;100.00;100646.19;5062789;28;20047;-51
2021/12/31 02:01:26;;;;;;;10.63;1.17;;;;;;;11.81;100.00;100641.09;5062415;28;20028;-49
2021/12/31 02:03:51;;;;;;;2.75;0.20;;;;;;;11.76;100.00;100639.81;5063769;28;20029;-49
2021/12/31 02:06:17;;;;;;;4.60;0.50;;;;;;;11.78;100.00;100629.00;5060231;28;20445;-51
2021/12/31 02:08:43;;;;;;;6.68;2.60;;;;;;;11.76;100.00;100633.69;5061203;28;20495;-53
2021/12/31 02:11:08;;;;;;;0.65;0.40;;;;;;;11.75;100.00;100626.75;5061120;28;20031;-49
2021/12/31 02:13:35;;;;;;;3.95;0.38;;;;;;;11.73;100.00;100634.91;5060881;28;20028;-49
2021/12/31 02:16:01;;;;;;;4.43;1.48;;;;;;;11.73;100.00;100642.88;5062290;28;20379;-52
2021/12/31 02:18:30;;;;;;;8.90;2.78;;;;;;;11.75;100.00;100626.75;5060998;28;20032;-48
2021/12/31 02:20:55;;;;;;;8.43;0.60;;;;;;;11.74;100.00;100625.91;5060926;28;20401;-51
2021/12/31 02:23:23;;;;;;;14.30;1.40;;;;;;;11.73;100.00;100634.91;5060383;28;20045;-50
2021/12/31 02:25:50;;;;;;;9.60;2.28;;;;;;;11.76;100.00;100618.56;5058990;28;20668;-50
2021/12/31 02:28:16;;;;;;;3.70;1.00;;;;;;;11.77;100.00;100614.91;5062766;28;20036;-49
2021/12/31 02:30:42;;;;;;;7.05;1.85;;;;;;;11.77;100.00;100614.06;5057895;28;20532;-50
2021/12/31 02:33:08;;;;;;;2.40;0.47;;;;;;;11.77;100.00;100616.72;5061426;28;20701;-48
2021/12/31 02:35:34;;;;;;;4.05;0.50;;;;;;;11.76;100.00;100602.63;5062981;28;20474;-48
2021/12/31 02:38:01;;;;;;;7.28;1.50;;;;;;;11.74;100.00;100598.53;5063659;28;20516;-52
2021/12/31 02:40:28;;;;;;;3.28;0.45;;;;;;;11.71;100.00;100588.31;5062598;28;20424;-50
2021/12/31 02:42:55;;;;;;;13.40;1.50;;;;;;;11.71;100.00;100589.13;5061207;28;20044;-53
2021/12/31 02:45:28;;;;;;;7.10;1.55;;;;;;;11.68;100.00;100584.19;5060683;28;20030;-48
2021/12/31 02:47:55;;;;;;;5.03;0.60;;;;;;;11.70;100.00;100597.28;5061164;28;20029;-52
2021/12/31 02:50:30;;;;;;;7.10;0.52;;;;;;;11.69;100.00;100612.38;5060092;28;20100;-51
2021/12/31 02:52:55;;;;;;;5.40;0.73;;;;;;;11.68;100.00;100591.34;5061427;28;20362;-49
2021/12/31 02:55:22;;;;;;;6.70;1.27;;;;;;;11.67;100.00;100592.34;5063379;28;20061;-53
2021/12/31 02:57:47;;;;;;;5.85;0.60;;;;;;;11.67;100.00;100593.19;5062395;28;20025;-50
2021/12/31 03:00:13;;;;;;;2.65;0.75;;;;;;;11.70;100.00;100598.09;5060056;28;20031;-50
2021/12/31 03:02:38;;;;;;;12.25;2.75;;;;;;;11.69;100.00;100598.28;5058595;28;20471;-49
2021/12/31 03:05:04;;;;;;;4.75;0.95;;;;;;;11.68;100.00;100588.69;5060879;28;20082;-50
2021/12/31 03:07:30;;;;;;;5.47;2.50;;;;;;;11.66;100.00;100591.53;5054324;28;20041;-48
2021/12/31 03:09:58;;;;;;;7.18;0.65;;;;;;;11.68;100.00;100588.69;5061165;28;20068;-50
2021/12/31 03:12:23;;;;;;;7.55;1.58;;;;;;;11.69;100.00;100585.81;5060592;28;20032;-53
2021/12/31 03:14:49;;;;;;;4.30;1.58;;;;;;;11.67;100.00;100606.47;5053157;28;20040;-53
2021/12/31 03:17:15;;;;;;;8.70;1.33;;;;;;;11.69;100.00;100587.66;5061937;28;20449;-49
2021/12/31 03:19:43;;;;;;;9.32;0.85;;;;;;;11.69;100.00;100599.09;5060727;28;20114;-50
2021/12/31 03:22:08;;;;;;;7.43;1.27;;;;;;;11.68;100.00;100594.81;5053124;28;20106;-55
2021/12/31 03:24:34;;;;;;;6.90;1.30;;;;;;;11.68;100.00;100596.66;5062216;28;22214;-50
2021/12/31 03:26:59;;;;;;;8.50;0.70;;;;;;;11.68;100.00;100599.31;5063845;28;20032;-48
2021/12/31 03:29:25;;;;;;;8.95;2.50;;;;;;;11.67;100.00;100597.66;5060304;28;20060;-52
2021/12/31 03:31:50;;;;;;;10.52;1.30;;;;;;;11.66;100.00;100575.59;5060121;28;21097;-51
2021/12/31 03:34:15;;;;;;;2.13;0.98;;;;;;;11.65;100.00;100576.63;5062054;28;20123;-53
2021/12/31 03:36:42;;;;;;;10.40;1.15;;;;;;;11.66;100.00;100559.66;5063510;28;20032;-49
2021/12/31 03:39:08;;;;;;;6.10;1.60;;;;;;;11.64;100.00;100571.50;5056690;28;20660;-48
2021/12/31 03:41:34;;;;;;;9.68;1.88;;;;;;;11.63;100.00;100559.25;5064846;28;20107;-55
2021/12/31 03:43:59;;;;;;;7.68;1.10;;;;;;;11.64;100.00;100552.91;5064348;28;20489;-49
2021/12/31 03:46:25;;;;;;;12.00;1.73;;;;;;;11.61;100.00;100548.00;5064449;28;20043;-51
2021/12/31 03:48:50;;;;;;;6.32;1.13;;;;;;;11.57;100.00;100556.34;5058337;28;20052;-51
2021/12/31 03:51:15;;;;;;;12.52;2.10;;;;;;;11.61;100.00;100555.97;5054213;28;20494;-48
2021/12/31 03:53:41;;;;;;;4.03;1.23;;;;;;;11.63;100.00;100554.75;5062707;28;20478;-53
2021/12/31 03:56:06;;;;;;;4.53;0.95;;;;;;;11.61;100.00;100551.47;5064922;28;20052;-55
2021/12/31 03:58:31;;;;;;;5.82;0.95;;;;;;;11.58;100.00;100547.38;5064243;28;20511;-51
2021/12/31 04:00:57;;;;;;;7.50;0.65;;;;;;;11.57;100.00;100543.09;5058566;28;20557;-51
2021/12/31 04:03:22;;;;;;;6.90;2.28;;;;;;;11.57;100.00;100560.84;5063360;28;20413;-50
2021/12/31 04:05:49;;;;;;;7.07;1.10;;;;;;;11.58;100.00;100558.00;5067413;28;20028;-49
2021/12/31 04:08:15;;;;;;;4.82;1.70;;;;;;;11.56;100.00;100537.97;5063528;28;20028;-49
2021/12/31 04:10:41;;;;;;;6.63;1.40;;;;;;;11.56;100.00;100538.81;5065474;28;20375;-49
2021/12/31 04:13:06;;;;;;;10.63;1.38;;;;;;;11.55;100.00;100526.53;5064158;28;20068;-49
2021/12/31 04:15:32;;;;;;;14.15;2.88;;;;;;;11.56;100.00;100506.09;5067634;28;20115;-50
2021/12/31 04:17:58;;;;;;;10.25;1.38;;;;;;;11.53;100.00;100501.19;5063789;28;20032;-48
2021/12/31 04:20:35;;;;;;;12.73;2.65;;;;;;;11.53;100.00;100507.31;5065606;28;20089;-51
2021/12/31 04:23:03;;;;;;;12.38;0.80;;;;;;;11.55;100.00;100513.25;5057550;28;20083;-48
2021/12/31 04:25:29;;;;;;;9.25;1.05;;;;;;;11.54;100.00;100501.00;5059831;28;20033;-50
2021/12/31 04:27:55;;;;;;;13.88;2.15;;;;;;;11.53;100.00;100517.09;5066128;28;20488;-49
2021/12/31 04:30:20;;;;;;;11.88;2.40;;;;;;;11.53;100.00;100533.03;5064448;28;20016;-50
2021/12/31 04:32:46;;;;;;;13.00;2.40;;;;;;;11.54;100.00;100535.50;5061041;28;20032;-48
2021/12/31 04:35:12;;;;;;;11.52;1.75;;;;;;;11.54;100.00;100540.81;5055518;28;20060;-49
2021/12/31 04:37:40;;;;;;;12.90;2.53;;;;;;;11.54;100.00;100538.16;5059157;28;20040;-48
2021/12/31 04:40:10;;;;;;;6.10;1.67;;;;;;;11.54;100.00;100537.34;5067538;28;20032;-53
2021/12/31 04:42:35;;;;;;;7.13;1.70;;;;;;;11.54;100.00;100546.13;5066127;28;20078;-52
2021/12/31 04:45:02;;;;;;;5.85;1.75;;;;;;;11.55;100.00;100546.94;5060777;28;20033;-49
2021/12/31 04:47:28;;;;;;;8.82;1.20;;;;;;;11.55;100.00;100550.41;5064473;28;20029;-52
2021/12/31 04:49:53;;;;;;;19.52;1.98;;;;;;;11.57;100.00;100550.25;5057482;28;20086;-51
2021/12/31 04:52:18;;;;;;;15.38;1.85;;;;;;;11.56;100.00;100548.56;5061302;28;20028;-51
2021/12/31 04:54:43;;;;;;;10.32;3.00;;;;;;;11.54;100.00;100546.13;5065682;28;20021;-52
2021/12/31 04:57:09;;;;;;;8.48;1.42;;;;;;;11.55;100.00;100517.75;5061619;28;20033;-50
2021/12/31 04:59:34;;;;;;;8.85;2.08;;;;;;;11.55;100.00;100531.81;5057070;28;20025;-49
2021/12/31 05:01:59;;;;;;;8.57;2.50;;;;;;;11.55;100.00;100542.44;5066136;28;20048;-49
2021/12/31 05:04:25;;;;;;;14.50;4.05;;;;;;;11.55;100.00;100533.66;5065110;28;20474;-53
2021/12/31 05:06:51;;;;;;;15.98;2.25;;;;;;;11.52;100.00;100553.47;5061671;28;20478;-51
2021/12/31 05:09:16;;;;;;;8.13;1.63;;;;;;;11.57;100.00;100550.25;5057146;28;20503;-49
2021/12/31 05:11:43;;;;;;;12.90;1.92;;;;;;;11.57;100.00;100555.53;5060295;28;20056;-51
2021/12/31 05:14:09;;;;;;;9.82;1.98;;;;;;;11.56;100.00;100546.75;5065626;28;20070;-50
2021/12/31 05:16:35;;;;;;;8.25;2.25;;;;;;;11.57;100.00;100555.53;5062263;28;20035;-50
2021/12/31 05:19:04;;;;;;;7.22;1.33;;;;;;;11.62;100.00;100562.94;5056705;28;20041;-49
2021/12/31 05:21:30;;;;;;;6.75;2.00;;;;;;;11.63;100.00;100564.56;5062349;28;20036;-48
2021/12/31 05:23:56;;;;;;;13.15;2.58;;;;;;;11.62;100.00;100560.28;5066862;28;20028;-49
2021/12/31 05:26:21;;;;;;;8.48;1.35;;;;;;;11.64;100.00;100550.25;5062513;28;20047;-48
2021/12/31 05:28:46;;;;;;;9.30;2.08;;;;;;;11.63;100.00;100549.44;5056503;28;20032;-51
2021/12/31 05:31:12;;;;;;;8.68;1.52;;;;;;;11.66;100.00;100561.50;5063487;28;20064;-49
2021/12/31 05:33:37;;;;;;;6.28;0.90;;;;;;;11.65;100.00;100554.56;5063733;28;20389;-48
2021/12/31 05:36:03;;;;;;;10.32;1.42;;;;;;;11.66;100.00;100558.84;5062809;28;20036;-47
2021/12/31 05:38:28;;;;;;;13.10;2.63;;;;;;;11.64;100.00;100545.78;5057971;28;20044;-50
2021/12/31 05:40:53;;;;;;;10.95;1.10;;;;;;;11.65;100.00;100535.97;5063166;28;20497;-52
2021/12/31 05:43:19;;;;;;;9.60;1.10;;;;;;;11.64;100.00;100539.63;5064389;28;20044;-50
2021/12/31 05:45:44;;;;;;;11.35;1.70;;;;;;;11.64;100.00;100539.63;5066153;28;20066;-52
2021/12/31 05:48:10;;;;;;;9.70;2.30;;;;;;;11.64;100.00;100543.13;5058080;28;20033;-52
2021/12/31 05:50:35;;;;;;;7.97;1.85;;;;;;;11.66;100.00;100540.25;5061894;28;20040;-50
2021/12/31 05:53:01;;;;;;;9.35;1.77;;;;;;;11.66;100.00;100524.31;5064142;28;20036;-47
2021/12/31 05:55:27;;;;;;;6.00;1.13;;;;;;;11.63;100.00;100532.69;5066098;28;20028;-50
2021/12/31 05:57:52;;;;;;;6.18;1.23;;;;;;;11.58;100.00;100530.63;5059961;28;20036;-52
2021/12/31 06:00:18;;;;;;;7.85;2.05;;;;;;;11.54;100.00;100501.00;5060885;28;20029;-48
2021/12/31 06:02:44;;;;;;;6.57;1.77;;;;;;;11.52;100.00;100505.69;5063592;28;20058;-51
2021/12/31 06:05:10;;;;;;;4.80;0.60;;;;;;;11.52;100.00;100507.53;5064108;28;20501;-47
2021/12/31 06:07:35;;;;;;;6.30;0.85;;;;;;;11.49;100.00;100506.06;5062785;28;20057;-51
2021/12/31 06:10:00;;;;;;;10.15;1.45;;;;;;;11.47;100.00;100516.06;5061262;28;20037;-50
2021/12/31 06:12:27;;;;;;;6.10;2.20;;;;;;;11.48;100.00;100509.72;5063197;28;20081;-51
2021/12/31 06:14:54;;;;;;;2.53;0.75;;;;;;;11.50;100.00;100501.56;5060227;28;20127;-48
2021/12/31 06:17:25;;;;;;;13.60;1.10;;;;;;;11.49;100.00;100498.09;5058333;28;20044;-46
2021/12/31 06:19:51;;;;;;;3.40;0.75;;;;;;;11.51;100.00;100506.69;5063134;28;20028;-48
2021/12/31 06:22:17;;;;;;;6.45;1.30;;;;;;;11.52;100.00;100508.31;5063377;28;20374;-49
2021/12/31 06:24:42;;;;;;;9.80;2.13;;;;;;;11.51;100.00;100553.66;5064047;28;20029;-48
2021/12/31 06:27:08;;;;;;;10.18;1.25;;;;;;;11.48;100.00;100552.22;5061293;28;20506;-48
2021/12/31 06:29:33;;;;;;;8.43;3.83;;;;;;;11.49;100.00;100547.75;5062713;28;20051;-51
2021/12/31 06:31:59;;;;;;;6.70;1.30;;;;;;;11.47;100.00;100536.50;5058232;28;20115;-46
2021/12/31 06:34:24;;;;;;;9.40;1.23;;;;;;;11.47;100.00;100539.97;5062504;28;20033;-51
2021/12/31 06:36:49;;;;;;;9.55;2.15;;;;;;;11.49;100.00;100547.75;5061726;28;20036;-48
2021/12/31 06:39:15;;;;;;;3.83;0.75;;;;;;;11.48;100.00;100541.59;5062897;28;20071;-48
2021/12/31 06:41:40;;;;;;;11.25;2.42;;;;;;;11.46;100.00;100546.28;5062173;28;20060;-47
2021/12/31 06:44:06;;;;;;;3.63;1.25;;;;;;;11.44;100.00;100548.31;5061681;28;20024;-51
2021/12/31 06:46:31;;;;;;;9.52;1.15;;;;;;;11.43;100.00;100559.94;5060871;28;20089;-53
2021/12/31 06:48:57;;;;;;;10.70;2.33;;;;;;;11.46;100.00;100550.75;5062944;28;20105;-51
2021/12/31 06:51:22;;;;;;;9.60;1.80;;;;;;;11.46;100.00;100572.00;5061273;28;20074;-49
2021/12/31 06:53:47;;;;;;;8.98;1.38;;;;;;;11.46;100.00;100583.47;5063218;28;20045;-52
2021/12/31 06:56:13;;;;;;;4.68;1.38;;;;;;;11.47;100.00;100594.91;5056718;28;20086;-51
2021/12/31 06:58:38;;;;;;;4.50;1.27;;;;;;;11.49;100.00;100616.78;5063992;28;20477;-51
2021/12/31 07:01:04;;;;;;;13.93;1.98;;;;;;;11.52;100.00;100643.75;5064817;28;20032;-54
2021/12/31 07:03:31;;;;;;;5.65;1.13;;;;;;;11.55;100.00;100631.91;5061154;28;20028;-48
2021/12/31 07:05:56;;;;;;;10.23;2.42;;;;;;;11.50;100.00;100618.41;5063073;28;20036;-50
2021/12/31 07:08:21;;;;;;;6.40;1.88;;;;;;;11.45;100.00;100642.88;5063788;28;20085;-53
2021/12/31 07:10:47;;;;;;;4.00;0.88;;;;;;;11.43;100.00;100662.66;5062778;28;20020;-60
2021/12/31 07:13:12;;;;;;;3.00;0.43;;;;;;;11.43;100.00;100670.63;5064674;28;20059;-50
2021/12/31 07:15:44;;;;;;;6.80;0.88;;;;;;;11.38;100.00;100662.41;5065073;28;20040;-49
2021/12/31 07:18:10;;;;;;;2.33;0.65;;;;;;;11.32;100.00;100634.81;5065203;28;20044;-48
2021/12/31 07:20:36;;;;;;;6.55;1.60;;;;;;;11.25;100.00;100613.50;5064156;28;20033;-52
2021/12/31 07:23:09;;;;;;;4.53;0.88;;;;;;;11.21;100.00;100635.34;5063324;28;20029;-51
2021/12/31 07:25:36;;;;;;;6.70;0.90;;;;;;;11.18;100.00;100635.69;5064790;28;20051;-48
2021/12/31 07:28:02;;;;;;;5.72;0.25;;;;;;;11.19;100.00;100618.78;5058054;28;20116;-50
2021/12/31 07:30:27;;;;;;;4.05;0.68;;;;;;;11.16;100.00;100611.22;5062139;28;20099;-50
2021/12/31 07:32:53;;;;;;;2.38;0.38;;;;;;;11.12;100.00;100616.88;5061094;28;20507;-50
2021/12/31 07:35:19;;;;;;;6.38;0.35;;;;;;;11.09;100.00;100622.56;5060203;28;20445;-49
2021/12/31 07:37:45;;;;;;;4.68;0.60;;;;;;;11.11;100.00;100631.16;5058531;28;20079;-47
2021/12/31 07:40:12;;;;;;;4.18;0.55;;;;;;;11.13;100.00;100649.56;5064671;28;20032;-48
2021/12/31 07:42:38;;;;;;;5.88;0.55;;;;;;;11.11;100.00;100635.66;5064569;28;20106;-46
2021/12/31 07:45:05;;;;;;;6.63;0.70;;;;;;;11.10;100.00;100599.50;5054473;28;20071;-50
2021/12/31 07:47:31;;;;;;;3.13;0.75;;;;;;;11.09;100.00;100616.44;5062542;28;20396;-48
2021/12/31 07:49:56;;;;;;;2.42;0.65;;;;;;;11.07;100.00;100631.72;5065784;28;20032;-51
2021/12/31 07:52:22;;;;;;;2.85;0.63;;;;;;;11.05;100.00;100629.28;5063228;28;20053;-52
2021/12/31 07:54:48;;;;;;;5.13;0.55;;;;;;;11.07;100.00;100643.16;5066111;28;20021;-49
2021/12/31 07:57:13;;;;;;;4.85;0.85;;;;;;;11.06;100.00;100648.69;5057137;28;20028;-51
2021/12/31 07:59:38;;;;;;;9.18;1.38;;;;;;;11.04;100.00;100654.16;5066298;28;20210;-53
2021/12/31 08:02:04;;;;;;;1.73;0.38;;;;;;;11.02;100.00;100647.41;5064682;28;20494;-51
2021/12/31 08:04:29;;;;;;;3.10;0.20;;;;;;;11.03;100.00;100655.19;5068215;28;20024;-50
2021/12/31 08:06:55;;;;;;;3.70;1.30;;;;;;;11.04;100.00;100663.97;5061280;28;20474;-50
2021/12/31 08:09:20;;;;;;;2.95;0.50;;;;;;;11.06;100.00;100668.06;5058793;28;20075;-50
2021/12/31 08:11:45;;;;;;;2.53;0.30;;;;;;;11.07;100.00;100675.00;5064184;28;20029;-50
2021/12/31 08:14:11;;;;;;;4.05;0.60;;;;;;;11.10;100.00;100681.75;5065361;28;20059;-51
2021/12/31 08:16:36;;;;;;;2.38;0.57;;;;;;;11.08;100.00;100697.88;5057215;28;20037;-46
2021/12/31 08:19:01;;;;;;;4.20;1.63;;;;;;;11.09;100.00;100682.78;5066396;28;20056;-50
2021/12/31 08:21:27;;;;;;;0.22;0.10;;;;;;;11.10;100.00;100679.97;5067795;28;20029;-47
2021/12/31 08:23:52;;;;;;;0.95;0.10;;;;;;;11.10;100.00;100679.97;5066062;28;20040;-55
2021/12/31 08:26:18;;;;;;;6.45;0.50;;;;;;;11.10;100.00;100679.09;5066146;28;20067;-53
2021/12/31 08:28:43;;;;;;;5.15;0.50;;;;;;;11.11;100.00;100708.13;5064855;28;20878;-52
2021/12/31 08:31:08;;;;;;;1.75;0.32;;;;;;;11.10;100.00;100710.94;5064705;28;20040;-48
2021/12/31 08:33:34;;;;;;;4.88;0.60;;;;;;;11.10;100.00;100717.09;5061654;28;20789;-49
2021/12/31 08:35:59;;;;;;;7.80;1.08;;;;;;;11.12;100.00;100701.78;5066638;28;20035;-48
2021/12/31 08:38:25;;;;;;;3.50;1.10;;;;;;;11.09;100.00;100691.56;5059427;28;20037;-48
2021/12/31 08:40:51;;;;;;;0.73;0.10;;;;;;;11.08;100.00;100705.84;5055928;28;20529;-48
2021/12/31 08:43:17;;;;;;;2.97;0.52;;;;;;;11.08;100.00;100697.06;5063702;28;20389;-48
2021/12/31 08:45:42;;;;;;;3.58;0.25;;;;;;;11.07;100.00;100708.69;5057955;28;20036;-48
2021/12/31 08:48:08;;;;;;;3.35;0.93;;;;;;;11.10;100.00;100716.25;5063152;28;20025;-53
2021/12/31 08:50:34;;;;;;;5.50;0.50;;;;;;;11.12;100.00;100712.41;5064092;28;20062;-48
2021/12/31 08:53:00;;;;;;;7.15;1.95;;;;;;;11.10;100.00;100703.84;5061720;28;20469;-52
2021/12/31 08:55:25;;;;;;;4.38;1.67;;;;;;;11.09;100.00;100707.47;5062020;28;20443;-49
2021/12/31 08:57:51;;;;;;;3.35;0.55;;;;;;;11.13;100.00;100710.59;5049806;28;20040;-49
2021/12/31 09:00:17;;;;;;;3.53;1.05;;;;;;;11.12;100.00;100709.75;5065838;28;20039;-50
2021/12/31 09:02:45;;;;;;;0.98;0.38;;;;;;;11.15;100.00;100708.56;5060849;28;20542;-52
2021/12/31 09:05:11;;;;;;;1.60;0.55;;;;;;;11.18;100.00;100710.00;5063223;28;20045;-55
2021/12/31 09:07:36;;;;;;;3.55;1.45;;;;;;;11.20;100.00;100713.31;5063935;28;20028;-54
2021/12/31 09:10:03;;;;;;;2.90;0.52;;;;;;;11.22;100.00;100727.22;5059419;28;20025;-53
2021/12/31 09:12:28;;;;;;;6.43;0.55;;;;;;;11.24;100.00;100735.81;5064159;28;20031;-49
2021/12/31 09:14:53;;;;;;;3.33;0.38;;;;;;;11.28;100.00;100731.75;5051705;28;20402;-50
2021/12/31 09:17:21;;;;;;;8.88;1.15;;;;;;;11.32;100.00;100739.16;5065371;28;20478;-49
2021/12/31 09:19:46;;;;;;;3.63;0.75;;;;;;;11.35;100.00;100732.66;5063019;28;20016;-54
2021/12/31 09:22:12;;;;;;;2.97;0.50;;;;;;;11.37;100.00;100743.09;5052340;28;20398;-52
2021/12/31 09:24:37;;;;;;;2.40;1.10;;;;;;;11.37;100.00;100759.84;5058036;28;20061;-50
2021/12/31 09:27:03;;;;;;;3.53;0.60;;;;;;;11.40;100.00;100762.09;5061570;28;20029;-49
2021/12/31 09:29:28;;;;;;;3.70;0.10;;;;;;;11.42;100.00;100760.09;5057808;28;20029;-50
2021/12/31 09:31:54;;;;;;;1.42;0.50;;;;;;;11.46;100.00;100755.22;5058997;28;20020;-51
2021/12/31 09:34:19;;;;;;;0.93;0.15;;;;;;;11.46;100.00;100764.00;5058053;28;20151;-49
2021/12/31 09:36:45;;;;;;;1.75;0.22;;;;;;;11.48;100.00;100775.25;5060288;28;20028;-48
2021/12/31 09:39:10;;;;;;;1.73;0.32;;;;;;;11.49;100.00;100792.03;5056954;28;20044;-52
2021/12/31 09:41:36;;;;;;;2.75;0.10;;;;;;;11.51;100.00;100804.09;5061380;28;20036;-48
2021/12/31 09:44:01;;;;;;;4.57;0.30;;;;;;;11.52;100.00;100808.38;5059776;28;20046;-50
2021/12/31 09:46:27;;;;;;;1.48;0.40;;;;;;;11.51;100.00;100814.72;5064343;28;20525;-51
2021/12/31 09:48:52;;;;;;;3.55;1.13;;;;;;;11.52;100.00;100810.22;5064159;28;20066;-50
2021/12/31 09:51:18;;;;;;;1.35;0.75;;;;;;;11.52;100.00;100826.97;5065479;28;20051;-49
2021/12/31 09:53:44;;;;;;;0.40;0.13;;;;;;;11.53;100.00;100827.78;5063662;28;20132;-51
2021/12/31 09:56:10;;;;;;;3.08;0.38;;;;;;;11.53;100.00;100825.97;5058456;28;20501;-48
2021/12/31 09:58:36;;;;;;;2.38;0.68;;;;;;;11.56;100.00;100830.06;5052039;28;20098;-48
2021/12/31 10:01:03;;;;;;;1.17;0.60;;;;;;;11.60;100.00;100825.22;5064994;28;20115;-49
2021/12/31 10:03:31;;;;;;;2.25;0.57;;;;;;;11.63;100.00;100832.81;5064272;28;20426;-51
2021/12/31 10:06:14;;;;;;;2.08;0.70;;;;;;;11.67;100.00;100842.03;5061238;28;20046;-52
2021/12/31 10:08:42;;;;;;;3.00;0.60;;;;;;;11.68;100.00;100854.31;5055635;28;20148;-49
2021/12/31 10:11:09;;;;;;;0.40;0.03;;;;;;;11.72;100.00;100852.91;5064308;28;20046;-54
2021/12/31 10:13:37;;;;;;;3.90;0.30;;;;;;;11.72;100.00;100855.56;5061721;28;20052;-50
2021/12/31 10:16:04;;;;;;;4.72;0.95;;;;;;;11.68;100.00;100854.31;5064101;28;20067;-53
2021/12/31 10:18:37;;;;;;;1.35;0.75;;;;;;;11.71;100.00;100854.75;5062626;28;20036;-54
2021/12/31 10:21:05;;;;;;;3.50;0.35;;;;;;;11.70;100.00;100844.31;5057270;28;20037;-50
2021/12/31 10:23:36;;;;;;;5.22;0.57;;;;;;;11.69;100.00;100859.41;5062877;28;20082;-51
2021/12/31 10:26:13;;;;;;;2.63;0.95;;;;;;;11.72;100.00;100863.53;5058778;28;20028;-52
2021/12/31 10:28:59;;;;;;;2.47;0.28;;;;;;;11.79;100.00;100853.78;5059664;28;20021;-54
2021/12/31 10:31:24;;;;;;;0.60;0.52;;;;;;;11.82;100.00;100856.06;5061049;28;20024;-54
2021/12/31 10:33:51;;;;;;;4.40;0.98;;;;;;;11.89;100.00;100849.00;5062807;28;20032;-49
2021/12/31 10:36:38;;;;;;;3.72;0.22;;;;;;;11.98;100.00;100837.25;5051418;28;20573;-48
2021/12/31 10:39:23;;;;;;;4.60;1.00;;;;;;;12.13;100.00;100833.69;5057578;28;20040;-54
2021/12/31 10:42:13;;;;;;;0.45;0.30;;;;;;;12.24;100.00;100822.53;5062636;28;20135;-51
2021/12/31 10:44:43;;;;;;;1.85;1.00;;;;;;;12.29;100.00;100803.31;5054944;28;20528;-49
2021/12/31 10:47:11;;;;;;;0.20;0.00;;;;;;;12.28;100.00;100802.50;5059468;28;20509;-48
2021/12/31 10:50:02;;;;;;;4.47;0.20;;;;;;;12.28;100.00;100807.81;5052018;28;20086;-51
2021/12/31 10:53:06;;;;;;;6.22;1.08;;;;;;;12.21;100.00;100806.97;5058825;28;20392;-51
2021/12/31 10:55:34;;;;;;;2.75;0.30;;;;;;;12.25;100.00;100805.56;5054231;28;20177;-50
2021/12/31 10:58:04;;;;;;;0.57;0.00;;;;;;;12.35;100.00;100803.38;5058807;28;20407;-51
2021/12/31 11:00:35;;;;;;;2.22;0.20;;;;;;;12.46;100.00;100801.19;5055883;28;20438;-50
2021/12/31 11:03:01;;;;;;;5.28;0.73;;;;;;;12.57;100.00;100808.59;5059395;28;20031;-50
2021/12/31 11:05:27;;;;;;;5.05;1.55;;;;;;;12.72;100.00;100822.59;5061439;28;20126;-53
2021/12/31 11:07:54;;;;;;;1.33;0.00;;;;;;;12.84;100.00;100809.59;5062342;28;20037;-51
2021/12/31 11:10:26;;;;;;;3.55;0.30;;;;;;;12.82;100.00;100800.97;5062766;28;20028;-51
2021/12/31 11:12:52;;;;;;;2.75;0.38;;;;;;;12.81;100.00;100808.13;5062858;28;20037;-58
2021/12/31 11:15:18;;;;;;;2.10;0.25;;;;;;;12.84;100.00;100813.06;5065739;28;20036;-49